Time,TemperatureF,DewpointF,PressureIn,WindDirection,WindDirectionDegrees,WindSpeedMPH,WindSpeedGustMPH,Humidity,HourlyPrecipIn,Conditions,Clouds,dailyrainin,SolarRadiationWatts/m^2,SoftwareType,DateUTC
2013-07-03 00:02:00,85.0,51.0,29.73,East,97,12.0,31.0,31,0.00,,,0.03,0.000000,,2013-07-03 07:02:00,
2013-07-03 00:12:00,86.0,52.0,29.73,East,93,9.0,31.0,31,0.00,,,0.03,0.000000,,2013-07-03 07:12:00,
2013-07-03 00:22:00,86.0,52.0,29.74,ENE,62,9.0,21.0,31,0.00,,,0.05,0.000000,,2013-07-03 07:22:00,
2013-07-03 00:53:00,85.0,50.0,29.73,NE,43,7.0,15.0,30,0.00,,,0.05,0.000000,,2013-07-03 07:53:00,
2013-07-03 01:02:00,86.0,50.0,29.73,NE,40,8.0,13.0,29,0.00,,,0.05,0.000000,,2013-07-03 08:02:00,
2013-07-03 01:22:00,86.0,51.0,29.72,South,190,3.0,11.0,30,0.00,,,0.05,0.000000,,2013-07-03 08:22:00,
2013-07-03 01:34:00,85.0,53.0,29.72,SSW,193,3.0,7.0,33,0.00,,,0.05,0.000000,,2013-07-03 08:34:00,
2013-07-03 01:52:00,82.0,56.0,29.73,SSE,155,0.0,1.0,41,0.00,,,0.05,0.000000,,2013-07-03 08:52:00,
2013-07-03 02:02:00,81.0,56.0,29.73,SSE,155,0.0,2.0,42,0.00,,,0.05,0.000000,,2013-07-03 09:02:00,
2013-07-03 02:43:00,78.0,56.0,29.71,SSW,202,0.0,0.0,47,0.00,,,0.05,0.000000,,2013-07-03 09:43:00,
2013-07-03 02:52:00,77.0,55.0,29.71,SSW,202,0.0,0.0,47,0.00,,,0.05,0.000000,,2013-07-03 09:52:00,
2013-07-03 03:22:00,82.0,53.0,29.70,ESE,116,5.0,14.0,37,0.00,,,0.05,0.000000,,2013-07-03 10:22:00,
2013-07-03 03:33:00,82.0,52.0,29.70,ESE,110,4.0,14.0,36,0.00,,,0.05,0.000000,,2013-07-03 10:33:00,
2013-07-03 03:43:00,82.0,53.0,29.70,ENE,76,6.0,13.0,37,0.00,,,0.05,0.000000,,2013-07-03 10:43:00,
2013-07-03 04:02:00,82.0,53.0,29.70,East,88,5.0,16.0,37,0.00,,,0.05,0.000000,,2013-07-03 11:02:00,
2013-07-03 04:11:00,82.0,52.0,29.70,SSE,156,6.0,13.0,36,0.00,,,0.05,0.000000,,2013-07-03 11:11:00,
2013-07-03 04:33:00,82.0,54.0,29.71,SE,124,6.0,12.0,38,0.00,,,0.05,0.000000,,2013-07-03 11:33:00,
2013-07-03 04:42:00,82.0,53.0,29.71,SE,124,6.0,12.0,37,0.00,,,0.03,0.000000,,2013-07-03 11:42:00,
2013-07-03 04:52:00,82.0,53.0,29.71,SE,131,6.0,13.0,37,0.00,,,0.02,0.000000,,2013-07-03 11:52:00,
2013-07-03 05:02:00,82.0,53.0,29.72,SSE,151,4.0,13.0,37,0.00,,,0.02,0.000000,,2013-07-03 12:02:00,
2013-07-03 05:11:00,82.0,53.0,29.72,ESE,120,4.0,13.0,37,0.00,,,0.02,0.000000,,2013-07-03 12:11:00,
2013-07-03 05:42:00,82.0,53.0,29.72,SE,131,4.0,10.0,37,0.00,,,0.02,7.000000,,2013-07-03 12:42:00,
2013-07-03 05:53:00,82.0,53.0,29.72,SE,128,5.0,10.0,37,0.00,,,0.02,16.000000,,2013-07-03 12:53:00,
2013-07-03 06:11:00,82.0,54.0,29.73,SE,145,5.0,10.0,38,0.00,,,0.02,56.000000,,2013-07-03 13:11:00,
2013-07-03 07:43:00,85.0,56.0,29.75,West,265,2.0,4.0,37,0.00,,,0.02,111.000000,,2013-07-03 14:43:00,
2013-07-03 07:53:00,85.0,57.0,29.75,WSW,254,1.0,4.0,38,0.00,,,0.02,95.000000,,2013-07-03 14:53:00,
2013-07-03 08:01:00,86.0,57.0,29.75,WSW,238,0.0,4.0,37,0.00,,,0.02,401.000000,,2013-07-03 15:01:00,
2013-07-03 08:34:00,89.0,55.0,29.75,SW,232,1.0,4.0,32,0.00,,,0.02,483.000000,,2013-07-03 15:34:00,
2013-07-03 08:53:00,90.0,54.0,29.74,WSW,247,1.0,5.0,30,0.00,,,0.02,564.000000,,2013-07-03 15:53:00,
2013-07-03 09:01:00,90.0,54.0,29.74,WSW,247,1.0,5.0,30,0.00,,,0.02,564.000000,,2013-07-03 16:01:00,
2013-07-03 09:33:00,90.0,54.0,29.73,WNW,286,1.0,5.0,30,0.00,,,0.02,480.000000,,2013-07-03 16:33:00,
2013-07-03 09:43:00,91.0,55.0,29.73,West,276,2.0,6.0,30,0.00,,,0.02,232.000000,,2013-07-03 16:43:00,
2013-07-03 10:02:00,89.0,55.0,29.73,WNW,295,2.0,6.0,32,0.00,,,0.02,151.000000,,2013-07-03 17:02:00,
2013-07-03 10:34:00,96.0,57.0,29.73,NNW,343,2.0,6.0,27,0.00,,,0.02,930.000000,,2013-07-03 17:34:00,
2013-07-03 10:44:00,94.0,55.0,29.72,West,281,2.0,7.0,27,0.00,,,0.02,974.000000,,2013-07-03 17:44:00,
2013-07-03 10:52:00,95.0,55.0,29.72,West,278,3.0,8.0,26,0.00,,,0.02,946.000000,,2013-07-03 17:52:00,
2013-07-03 11:02:00,95.0,55.0,29.72,NW,311,2.0,8.0,26,0.00,,,0.02,895.000000,,2013-07-03 18:02:00,
2013-07-03 11:11:00,96.0,54.0,29.72,WNW,290,1.0,7.0,25,0.00,,,0.02,854.000000,,2013-07-03 18:11:00,
2013-07-03 11:53:00,98.0,53.0,29.70,SSW,208,3.0,9.0,22,0.00,,,0.02,900.000000,,2013-07-03 18:53:00,
2013-07-03 12:12:00,99.0,53.0,29.70,WSW,253,3.0,9.0,22,0.00,,,0.02,916.000000,,2013-07-03 19:12:00,
2013-07-03 12:33:00,100.0,53.0,29.68,WSW,245,3.0,9.0,21,0.00,,,0.02,926.000000,,2013-07-03 19:33:00,
2013-07-03 12:44:00,101.0,52.0,29.67,WSW,252,5.0,12.0,20,0.00,,,0.02,925.000000,,2013-07-03 19:44:00,
2013-07-03 12:53:00,101.0,54.0,29.67,West,274,5.0,12.0,21,0.00,,,0.02,926.000000,,2013-07-03 19:53:00,
2013-07-03 13:01:00,100.0,53.0,29.67,NW,311,5.0,12.0,21,0.00,,,0.02,923.000000,,2013-07-03 20:01:00,
2013-07-03 13:34:00,103.0,54.0,29.65,West,280,6.0,17.0,20,0.00,,,0.02,909.000000,,2013-07-03 20:34:00,
2013-07-03 13:43:00,103.0,54.0,29.64,WNW,289,8.0,17.0,20,0.00,,,0.02,905.000000,,2013-07-03 20:43:00,
2013-07-03 13:52:00,103.0,54.0,29.64,SW,229,7.0,17.0,20,0.00,,,0.02,895.000000,,2013-07-03 20:52:00,
2013-07-03 14:01:00,103.0,53.0,29.63,West,270,9.0,17.0,19,0.00,,,0.02,882.000000,,2013-07-03 21:01:00,
2013-07-03 14:11:00,103.0,53.0,29.63,WNW,297,8.0,18.0,19,0.00,,,0.02,875.000000,,2013-07-03 21:11:00,
2013-07-03 14:33:00,104.0,54.0,29.61,SW,236,9.0,19.0,19,0.00,,,0.02,838.000000,,2013-07-03 21:33:00,
2013-07-03 14:42:00,104.0,54.0,29.61,WSW,240,9.0,19.0,19,0.00,,,0.02,824.000000,,2013-07-03 21:42:00,
2013-07-03 14:52:00,104.0,54.0,29.60,WSW,257,7.0,19.0,19,0.00,,,0.02,812.000000,,2013-07-03 21:52:00,
2013-07-03 15:01:00,104.0,52.0,29.59,NNW,328,8.0,19.0,18,0.00,,,0.02,786.000000,,2013-07-03 22:01:00,
2013-07-03 15:11:00,104.0,54.0,29.59,NW,323,8.0,19.0,19,0.00,,,0.02,770.000000,,2013-07-03 22:11:00,
2013-07-03 15:22:00,104.0,52.0,29.58,West,280,8.0,16.0,18,0.00,,,0.02,747.000000,,2013-07-03 22:22:00,
2013-07-03 15:33:00,104.0,54.0,29.57,NW,316,9.0,16.0,19,0.00,,,0.02,719.000000,,2013-07-03 22:33:00,
2013-07-03 15:43:00,105.0,53.0,29.57,West,261,7.0,17.0,18,0.00,,,0.02,696.000000,,2013-07-03 22:43:00,
2013-07-03 15:53:00,105.0,53.0,29.57,WNW,289,8.0,18.0,18,0.00,,,0.02,689.000000,,2013-07-03 22:53:00,
2013-07-03 16:01:00,105.0,53.0,29.56,West,268,7.0,14.0,18,0.00,,,0.02,635.000000,,2013-07-03 23:01:00,
2013-07-03 16:11:00,105.0,53.0,29.56,West,268,7.0,14.0,18,0.00,,,0.02,635.000000,,2013-07-03 23:11:00,
2013-07-03 16:34:00,105.0,54.0,29.54,West,271,7.0,16.0,19,0.00,,,0.02,555.000000,,2013-07-03 23:34:00,
2013-07-03 16:52:00,104.0,54.0,29.53,WNW,291,7.0,18.0,19,0.00,,,0.02,499.000000,,2013-07-03 23:52:00,
2013-07-03 17:02:00,104.0,54.0,29.53,WNW,291,7.0,18.0,19,0.00,,,0.02,499.000000,,2013-07-04 00:02:00,
2013-07-03 17:11:00,103.0,53.0,29.52,WNW,293,8.0,19.0,19,0.00,,,0.02,445.000000,,2013-07-04 00:11:00,
2013-07-03 17:33:00,104.0,54.0,29.50,WNW,284,6.0,16.0,19,0.00,,,0.02,387.000000,,2013-07-04 00:33:00,
2013-07-03 17:43:00,103.0,53.0,29.50,WNW,282,8.0,15.0,19,0.00,,,0.02,330.000000,,2013-07-04 00:43:00,
2013-07-03 17:53:00,103.0,53.0,29.51,West,274,7.0,15.0,19,0.00,,,0.02,313.000000,,2013-07-04 00:53:00,
2013-07-03 18:11:00,103.0,53.0,29.50,West,280,6.0,17.0,19,0.00,,,0.02,236.000000,,2013-07-04 01:11:00,
2013-07-03 18:22:00,102.0,52.0,29.50,WSW,257,7.0,13.0,19,0.00,,,0.02,223.000000,,2013-07-04 01:22:00,
2013-07-03 18:33:00,101.0,52.0,29.52,WNW,289,7.0,16.0,20,0.00,,,0.02,70.000000,,2013-07-04 01:33:00,
2013-07-03 18:43:00,100.0,53.0,29.52,West,280,5.0,11.0,21,0.00,,,0.02,62.000000,,2013-07-04 01:43:00,
2013-07-03 19:01:00,100.0,53.0,29.52,West,274,5.0,11.0,21,0.00,,,0.02,51.000000,,2013-07-04 02:01:00,
2013-07-03 19:11:00,100.0,53.0,29.53,WNW,285,4.0,11.0,21,0.00,,,0.02,40.000000,,2013-07-04 02:11:00,
2013-07-03 19:22:00,100.0,53.0,29.53,NW,305,3.0,11.0,21,0.00,,,0.02,33.000000,,2013-07-04 02:22:00,
2013-07-03 19:34:00,99.0,53.0,29.53,WNW,296,4.0,9.0,22,0.00,,,0.02,5.000000,,2013-07-04 02:34:00,
2013-07-03 19:43:00,99.0,53.0,29.53,NW,323,5.0,10.0,22,0.00,,,0.02,0.000000,,2013-07-04 02:43:00,
2013-07-03 19:52:00,99.0,53.0,29.54,WNW,290,4.0,10.0,22,0.00,,,0.02,0.000000,,2013-07-04 02:52:00,
2013-07-03 20:02:00,98.0,53.0,29.54,NW,315,4.0,10.0,22,0.00,,,0.02,0.000000,,2013-07-04 03:02:00,
2013-07-03 20:11:00,98.0,53.0,29.54,NW,315,4.0,10.0,22,0.00,,,0.02,0.000000,,2013-07-04 03:11:00,
2013-07-03 20:23:00,98.0,53.0,29.53,NNW,330,4.0,12.0,22,0.00,,,0.02,0.000000,,2013-07-04 03:23:00,
2013-07-03 20:33:00,98.0,50.0,29.53,North,353,6.0,12.0,20,0.00,,,0.02,0.000000,,2013-07-04 03:33:00,
2013-07-03 20:43:00,98.0,50.0,29.54,NW,311,5.0,14.0,20,0.00,,,0.02,0.000000,,2013-07-04 03:43:00,
2013-07-03 20:53:00,98.0,50.0,29.53,WNW,286,5.0,14.0,20,0.00,,,0.02,0.000000,,2013-07-04 03:53:00,
2013-07-03 21:01:00,97.0,51.0,29.54,NW,321,2.0,10.0,21,0.00,,,0.02,0.000000,,2013-07-04 04:01:00,
2013-07-03 21:11:00,97.0,49.0,29.54,WNW,288,2.0,7.0,20,0.00,,,0.02,0.000000,,2013-07-04 04:11:00,
2013-07-03 21:22:00,96.0,48.0,29.55,WNW,284,2.0,7.0,20,0.00,,,0.02,0.000000,,2013-07-04 04:22:00,
2013-07-03 21:33:00,96.0,50.0,29.55,WNW,284,1.0,6.0,21,0.00,,,0.02,0.000000,,2013-07-04 04:33:00,
2013-07-03 21:43:00,95.0,49.0,29.55,West,276,1.0,6.0,21,0.00,,,0.02,0.000000,,2013-07-04 04:43:00,
2013-07-03 22:01:00,95.0,49.0,29.55,NW,321,3.0,9.0,21,0.00,,,0.02,0.000000,,2013-07-04 05:01:00,
2013-07-03 22:12:00,96.0,50.0,29.56,West,269,5.0,10.0,21,0.00,,,0.02,0.000000,,2013-07-04 05:12:00,
2013-07-03 22:22:00,95.0,49.0,29.57,North,357,2.0,10.0,21,0.00,,,0.02,0.000000,,2013-07-04 05:22:00,
2013-07-03 22:32:00,94.0,49.0,29.57,North,357,0.0,1.0,22,0.00,,,0.02,0.000000,,2013-07-04 05:32:00,
2013-07-03 22:42:00,92.0,49.0,29.57,North,357,0.0,0.0,23,0.00,,,0.02,0.000000,,2013-07-04 05:42:00,
2013-07-03 22:52:00,92.0,49.0,29.57,NNE,16,0.0,1.0,23,0.00,,,0.02,0.000000,,2013-07-04 05:52:00,
2013-07-03 23:01:00,89.0,50.0,29.58,ENE,78,0.0,2.0,26,0.00,,,0.02,0.000000,,2013-07-04 06:01:00,
2013-07-03 23:11:00,89.0,51.0,29.58,East,96,0.0,4.0,27,0.00,,,0.02,0.000000,,2013-07-04 06:11:00,
2013-07-03 23:33:00,87.0,50.0,29.58,East,97,0.0,1.0,28,0.00,,,0.02,0.000000,,2013-07-04 06:33:00,
2013-07-03 23:42:00,86.0,50.0,29.59,East,99,0.0,1.0,29,0.00,,,0.02,0.000000,,2013-07-04 06:42:00,